sensor_id;sensor_type;location;lat;lon;timestamp;temperature;humidity
1592;DHT22;789;51.612;7.510;2023-12-20T00:01:35;9.50;1.00
1592;DHT22;789;51.612;7.510;2023-12-20T00:04:02;9.40;1.00
1592;DHT22;789;51.612;7.510;2023-12-20T00:06:29;9.30;1.00
1592;DHT22;789;51.612;7.510;2023-12-20T00:08:57;9.30;1.00
1592;DHT22;789;51.612;7.510;2023-12-20T00:11:24;9.30;1.00
1592;DHT22;789;51.612;7.510;2023-12-20T00:13:51;9.20;1.00
1592;DHT22;789;51.612;7.510;2023-12-20T00:16:17;9.20;1.00
1592;DHT22;789;51.612;7.510;2023-12-20T00:18:44;9.20;1.00
1592;DHT22;789;51.612;7.510;2023-12-20T00:21:11;9.20;1.00
1592;DHT22;789;51.612;7.510;2023-12-20T00:23:38;9.10;1.00
1592;DHT22;789;51.612;7.510;2023-12-20T00:26:06;9.10;1.00
1592;DHT22;789;51.612;7.510;2023-12-20T00:28:32;9.10;1.00
1592;DHT22;789;51.612;7.510;2023-12-20T00:30:59;9.10;1.00
1592;DHT22;789;51.612;7.510;2023-12-20T00:33:35;9.00;1.00
1592;DHT22;789;51.612;7.510;2023-12-20T00:36:02;9.00;1.00
1592;DHT22;789;51.612;7.510;2023-12-20T00:38:29;9.00;1.00
1592;DHT22;789;51.612;7.510;2023-12-20T00:40:55;9.00;1.00
1592;DHT22;789;51.612;7.510;2023-12-20T00:43:23;9.00;1.00
1592;DHT22;789;51.612;7.510;2023-12-20T00:45:50;9.00;1.00
1592;DHT22;789;51.612;7.510;2023-12-20T00:48:16;9.00;1.00
1592;DHT22;789;51.612;7.510;2023-12-20T00:50:43;9.00;1.00
1592;DHT22;789;51.612;7.510;2023-12-20T00:53:10;9.00;1.00
1592;DHT22;789;51.612;7.510;2023-12-20T00:55:36;9.00;1.00
1592;DHT22;789;51.612;7.510;2023-12-20T00:58:03;9.00;1.00
1592;DHT22;789;51.612;7.510;2023-12-20T01:00:31;9.00;1.00
1592;DHT22;789;51.612;7.510;2023-12-20T01:02:58;8.90;1.00
1592;DHT22;789;51.612;7.510;2023-12-20T01:05:25;8.90;1.00
1592;DHT22;789;51.612;7.510;2023-12-20T01:07:51;8.90;1.00
1592;DHT22;789;51.612;7.510;2023-12-20T01:10:18;8.90;1.00
1592;DHT22;789;51.612;7.510;2023-12-20T01:12:45;8.90;1.00
1592;DHT22;789;51.612;7.510;2023-12-20T01:15:11;8.90;1.00
1592;DHT22;789;51.612;7.510;2023-12-20T01:17:40;8.90;1.00
1592;DHT22;789;51.612;7.510;2023-12-20T01:20:07;8.90;1.00
1592;DHT22;789;51.612;7.510;2023-12-20T01:22:34;8.90;1.00
1592;DHT22;789;51.612;7.510;2023-12-20T01:25:01;8.90;1.00
1592;DHT22;789;51.612;7.510;2023-12-20T01:27:28;8.90;1.00
1592;DHT22;789;51.612;7.510;2023-12-20T01:29:56;8.90;1.00
1592;DHT22;789;51.612;7.510;2023-12-20T01:32:23;8.90;1.00
1592;DHT22;789;51.612;7.510;2023-12-20T01:34:51;8.90;1.00
1592;DHT22;789;51.612;7.510;2023-12-20T01:37:18;8.90;1.00
1592;DHT22;789;51.612;7.510;2023-12-20T01:39:44;8.90;1.00
1592;DHT22;789;51.612;7.510;2023-12-20T01:42:11;8.90;1.00
1592;DHT22;789;51.612;7.510;2023-12-20T01:44:38;8.90;1.00
1592;DHT22;789;51.612;7.510;2023-12-20T01:47:04;8.90;1.00
1592;DHT22;789;51.612;7.510;2023-12-20T01:49:31;9.00;1.00
1592;DHT22;789;51.612;7.510;2023-12-20T01:51:59;8.90;1.00
1592;DHT22;789;51.612;7.510;2023-12-20T01:54:26;8.90;1.00
1592;DHT22;789;51.612;7.510;2023-12-20T01:56:53;8.90;1.00
1592;DHT22;789;51.612;7.510;2023-12-20T01:59:20;8.80;1.00
1592;DHT22;789;51.612;7.510;2023-12-20T02:01:48;8.80;1.00
1592;DHT22;789;51.612;7.510;2023-12-20T02:04:15;8.70;1.00
1592;DHT22;789;51.612;7.510;2023-12-20T02:06:42;8.70;1.00
1592;DHT22;789;51.612;7.510;2023-12-20T02:09:11;8.60;1.00
1592;DHT22;789;51.612;7.510;2023-12-20T02:11:38;8.60;1.00
1592;DHT22;789;51.612;7.510;2023-12-20T02:14:05;8.60;1.00
1592;DHT22;789;51.612;7.510;2023-12-20T02:16:32;8.50;1.00
1592;DHT22;789;51.612;7.510;2023-12-20T02:18:58;8.50;1.00
1592;DHT22;789;51.612;7.510;2023-12-20T02:21:32;8.50;1.00
1592;DHT22;789;51.612;7.510;2023-12-20T02:23:59;8.50;1.00
1592;DHT22;789;51.612;7.510;2023-12-20T02:26:26;8.50;1.00
1592;DHT22;789;51.612;7.510;2023-12-20T02:28:52;8.40;1.00
1592;DHT22;789;51.612;7.510;2023-12-20T02:31:28;8.50;1.00
1592;DHT22;789;51.612;7.510;2023-12-20T02:33:58;8.50;1.00
1592;DHT22;789;51.612;7.510;2023-12-20T02:36:28;8.60;1.00
1592;DHT22;789;51.612;7.510;2023-12-20T02:38:55;8.50;1.00
1592;DHT22;789;51.612;7.510;2023-12-20T02:41:21;8.40;1.00
1592;DHT22;789;51.612;7.510;2023-12-20T02:43:48;8.50;1.00
1592;DHT22;789;51.612;7.510;2023-12-20T02:46:16;8.40;1.00
1592;DHT22;789;51.612;7.510;2023-12-20T02:48:43;8.50;1.00
1592;DHT22;789;51.612;7.510;2023-12-20T02:51:10;8.50;1.00
1592;DHT22;789;51.612;7.510;2023-12-20T02:53:38;8.50;1.00
1592;DHT22;789;51.612;7.510;2023-12-20T02:56:05;8.50;1.00
1592;DHT22;789;51.612;7.510;2023-12-20T02:58:32;8.50;1.00
1592;DHT22;789;51.612;7.510;2023-12-20T03:00:59;8.40;1.00
1592;DHT22;789;51.612;7.510;2023-12-20T03:03:25;8.30;1.00
1592;DHT22;789;51.612;7.510;2023-12-20T03:05:52;8.30;1.00
1592;DHT22;789;51.612;7.510;2023-12-20T03:08:19;8.30;1.00
1592;DHT22;789;51.612;7.510;2023-12-20T03:10:47;8.30;1.00
1592;DHT22;789;51.612;7.510;2023-12-20T03:13:13;8.20;1.00
1592;DHT22;789;51.612;7.510;2023-12-20T03:15:40;8.20;1.00
1592;DHT22;789;51.612;7.510;2023-12-20T03:18:07;8.20;1.00
1592;DHT22;789;51.612;7.510;2023-12-20T03:20:34;8.20;1.00
1592;DHT22;789;51.612;7.510;2023-12-20T03:23:01;8.30;1.00
1592;DHT22;789;51.612;7.510;2023-12-20T03:25:27;8.30;1.00
1592;DHT22;789;51.612;7.510;2023-12-20T03:27:55;8.30;1.00
1592;DHT22;789;51.612;7.510;2023-12-20T03:30:22;8.20;1.00
1592;DHT22;789;51.612;7.510;2023-12-20T03:32:49;8.20;1.00
1592;DHT22;789;51.612;7.510;2023-12-20T03:35:15;8.20;1.00
1592;DHT22;789;51.612;7.510;2023-12-20T03:37:42;8.20;1.00
1592;DHT22;789;51.612;7.510;2023-12-20T03:40:09;8.10;1.00
1592;DHT22;789;51.612;7.510;2023-12-20T03:42:36;8.10;1.00
1592;DHT22;789;51.612;7.510;2023-12-20T03:45:05;8.10;1.00
1592;DHT22;789;51.612;7.510;2023-12-20T03:47:32;8.20;1.00
1592;DHT22;789;51.612;7.510;2023-12-20T03:49:59;8.20;1.00
1592;DHT22;789;51.612;7.510;2023-12-20T03:52:26;8.20;1.00
1592;DHT22;789;51.612;7.510;2023-12-20T03:54:52;8.20;1.00
1592;DHT22;789;51.612;7.510;2023-12-20T03:57:19;8.10;1.00
1592;DHT22;789;51.612;7.510;2023-12-20T03:59:46;8.10;1.00
1592;DHT22;789;51.612;7.510;2023-12-20T04:02:14;8.00;1.00
1592;DHT22;789;51.612;7.510;2023-12-20T04:04:41;8.00;1.00
1592;DHT22;789;51.612;7.510;2023-12-20T04:07:08;8.00;1.00
1592;DHT22;789;51.612;7.510;2023-12-20T04:09:35;7.90;1.00
1592;DHT22;789;51.612;7.510;2023-12-20T04:12:02;7.90;1.00
1592;DHT22;789;51.612;7.510;2023-12-20T04:14:28;7.80;1.00
1592;DHT22;789;51.612;7.510;2023-12-20T04:16:55;7.80;1.00
1592;DHT22;789;51.612;7.510;2023-12-20T04:19:23;7.80;1.00
1592;DHT22;789;51.612;7.510;2023-12-20T04:21:50;7.70;1.00
1592;DHT22;789;51.612;7.510;2023-12-20T04:24:17;7.70;1.00
1592;DHT22;789;51.612;7.510;2023-12-20T04:26:45;7.60;1.00
1592;DHT22;789;51.612;7.510;2023-12-20T04:29:12;7.60;1.00
1592;DHT22;789;51.612;7.510;2023-12-20T04:31:39;7.60;1.00
1592;DHT22;789;51.612;7.510;2023-12-20T04:34:06;7.50;1.00
1592;DHT22;789;51.612;7.510;2023-12-20T04:36:34;7.50;1.00
1592;DHT22;789;51.612;7.510;2023-12-20T04:39:01;7.50;1.00
1592;DHT22;789;51.612;7.510;2023-12-20T04:41:28;7.50;1.00
1592;DHT22;789;51.612;7.510;2023-12-20T04:43:55;7.40;1.00
1592;DHT22;789;51.612;7.510;2023-12-20T04:46:21;7.50;1.00
1592;DHT22;789;51.612;7.510;2023-12-20T04:48:48;7.50;1.00
1592;DHT22;789;51.612;7.510;2023-12-20T04:51:15;7.50;1.00
1592;DHT22;789;51.612;7.510;2023-12-20T04:53:43;7.50;1.00
1592;DHT22;789;51.612;7.510;2023-12-20T04:56:10;7.50;1.00
1592;DHT22;789;51.612;7.510;2023-12-20T04:58:37;7.50;1.00
1592;DHT22;789;51.612;7.510;2023-12-20T05:01:04;7.60;1.00
1592;DHT22;789;51.612;7.510;2023-12-20T05:03:32;7.50;1.00
1592;DHT22;789;51.612;7.510;2023-12-20T05:05:59;7.60;1.00
1592;DHT22;789;51.612;7.510;2023-12-20T05:08:25;7.60;1.00
1592;DHT22;789;51.612;7.510;2023-12-20T05:10:54;7.70;1.00
1592;DHT22;789;51.612;7.510;2023-12-20T05:13:21;7.70;1.00
1592;DHT22;789;51.612;7.510;2023-12-20T05:15:48;7.80;1.00
1592;DHT22;789;51.612;7.510;2023-12-20T05:18:15;7.70;1.00
1592;DHT22;789;51.612;7.510;2023-12-20T05:20:41;7.70;1.00
1592;DHT22;789;51.612;7.510;2023-12-20T05:23:08;7.70;1.00
1592;DHT22;789;51.612;7.510;2023-12-20T05:25:35;7.80;1.00
1592;DHT22;789;51.612;7.510;2023-12-20T05:28:04;7.70;1.00
1592;DHT22;789;51.612;7.510;2023-12-20T05:30:30;7.60;1.00
1592;DHT22;789;51.612;7.510;2023-12-20T05:32:57;7.60;1.00
1592;DHT22;789;51.612;7.510;2023-12-20T05:35:24;7.60;1.00
1592;DHT22;789;51.612;7.510;2023-12-20T05:37:50;7.60;1.00
1592;DHT22;789;51.612;7.510;2023-12-20T05:40:17;7.60;1.00
1592;DHT22;789;51.612;7.510;2023-12-20T05:42:46;7.60;1.00
1592;DHT22;789;51.612;7.510;2023-12-20T05:45:15;7.60;1.00
1592;DHT22;789;51.612;7.510;2023-12-20T05:47:42;7.60;1.00
1592;DHT22;789;51.612;7.510;2023-12-20T05:50:08;7.50;1.00
1592;DHT22;789;51.612;7.510;2023-12-20T05:52:35;7.50;1.00
1592;DHT22;789;51.612;7.510;2023-12-20T05:55:02;7.60;1.00
1592;DHT22;789;51.612;7.510;2023-12-20T05:57:29;7.60;1.00
1592;DHT22;789;51.612;7.510;2023-12-20T05:59:56;7.60;1.00
1592;DHT22;789;51.612;7.510;2023-12-20T06:02:24;7.60;1.00
1592;DHT22;789;51.612;7.510;2023-12-20T06:04:51;7.70;1.00
1592;DHT22;789;51.612;7.510;2023-12-20T06:07:18;7.60;1.00
1592;DHT22;789;51.612;7.510;2023-12-20T06:09:44;7.60;1.00
1592;DHT22;789;51.612;7.510;2023-12-20T06:12:11;7.70;1.00
1592;DHT22;789;51.612;7.510;2023-12-20T06:14:38;7.70;1.00
1592;DHT22;789;51.612;7.510;2023-12-20T06:17:26;7.70;1.00
1592;DHT22;789;51.612;7.510;2023-12-20T06:20:27;7.90;1.00
1592;DHT22;789;51.612;7.510;2023-12-20T06:22:57;7.70;1.00
1592;DHT22;789;51.612;7.510;2023-12-20T06:25:23;7.70;1.00
1592;DHT22;789;51.612;7.510;2023-12-20T06:27:50;7.70;1.00
1592;DHT22;789;51.612;7.510;2023-12-20T06:30:18;7.70;1.00
1592;DHT22;789;51.612;7.510;2023-12-20T06:32:45;7.70;1.00
1592;DHT22;789;51.612;7.510;2023-12-20T06:35:12;7.60;1.00
1592;DHT22;789;51.612;7.510;2023-12-20T06:37:40;7.70;1.00
1592;DHT22;789;51.612;7.510;2023-12-20T06:40:08;7.70;1.00
1592;DHT22;789;51.612;7.510;2023-12-20T06:42:35;7.80;1.00
1592;DHT22;789;51.612;7.510;2023-12-20T06:45:05;7.80;1.00
1592;DHT22;789;51.612;7.510;2023-12-20T06:47:32;7.80;1.00
1592;DHT22;789;51.612;7.510;2023-12-20T06:49:59;7.80;1.00
1592;DHT22;789;51.612;7.510;2023-12-20T06:52:28;7.80;1.00
1592;DHT22;789;51.612;7.510;2023-12-20T06:54:57;7.80;1.00
1592;DHT22;789;51.612;7.510;2023-12-20T06:57:23;7.80;1.00
1592;DHT22;789;51.612;7.510;2023-12-20T06:59:51;7.80;1.00
1592;DHT22;789;51.612;7.510;2023-12-20T07:02:18;7.70;1.00
1592;DHT22;789;51.612;7.510;2023-12-20T07:04:45;7.70;1.00
1592;DHT22;789;51.612;7.510;2023-12-20T07:07:12;7.70;1.00
1592;DHT22;789;51.612;7.510;2023-12-20T07:09:39;7.80;1.00
1592;DHT22;789;51.612;7.510;2023-12-20T07:12:09;7.70;1.00
1592;DHT22;789;51.612;7.510;2023-12-20T07:14:36;7.70;1.00
1592;DHT22;789;51.612;7.510;2023-12-20T07:17:04;7.70;1.00
1592;DHT22;789;51.612;7.510;2023-12-20T07:19:37;7.70;1.00
1592;DHT22;789;51.612;7.510;2023-12-20T07:22:04;7.70;1.00
1592;DHT22;789;51.612;7.510;2023-12-20T07:24:30;7.70;1.00
1592;DHT22;789;51.612;7.510;2023-12-20T07:26:57;7.70;1.00
1592;DHT22;789;51.612;7.510;2023-12-20T07:29:25;7.70;1.00
1592;DHT22;789;51.612;7.510;2023-12-20T07:31:57;7.70;1.00
1592;DHT22;789;51.612;7.510;2023-12-20T07:34:34;7.70;1.00
1592;DHT22;789;51.612;7.510;2023-12-20T07:37:01;7.70;1.00
1592;DHT22;789;51.612;7.510;2023-12-20T07:39:28;7.70;1.00
1592;DHT22;789;51.612;7.510;2023-12-20T07:41:57;7.70;1.00
1592;DHT22;789;51.612;7.510;2023-12-20T07:44:25;7.80;1.00
1592;DHT22;789;51.612;7.510;2023-12-20T07:46:52;7.80;1.00
1592;DHT22;789;51.612;7.510;2023-12-20T07:49:19;7.80;1.00
1592;DHT22;789;51.612;7.510;2023-12-20T07:51:46;7.80;1.00
1592;DHT22;789;51.612;7.510;2023-12-20T07:54:12;7.80;1.00
1592;DHT22;789;51.612;7.510;2023-12-20T07:56:39;7.80;1.00
1592;DHT22;789;51.612;7.510;2023-12-20T07:59:06;7.80;1.00
1592;DHT22;789;51.612;7.510;2023-12-20T08:01:34;7.80;1.00
1592;DHT22;789;51.612;7.510;2023-12-20T08:04:01;7.90;1.00
1592;DHT22;789;51.612;7.510;2023-12-20T08:06:28;7.90;1.00
1592;DHT22;789;51.612;7.510;2023-12-20T08:08:54;7.90;1.00
1592;DHT22;789;51.612;7.510;2023-12-20T08:11:29;7.90;1.00
1592;DHT22;789;51.612;7.510;2023-12-20T08:13:56;8.00;1.00
1592;DHT22;789;51.612;7.510;2023-12-20T08:16:26;8.00;1.00
1592;DHT22;789;51.612;7.510;2023-12-20T08:18:54;7.90;1.00
1592;DHT22;789;51.612;7.510;2023-12-20T08:21:21;8.10;1.00
1592;DHT22;789;51.612;7.510;2023-12-20T08:23:48;8.00;1.00
1592;DHT22;789;51.612;7.510;2023-12-20T08:26:18;8.00;1.00
1592;DHT22;789;51.612;7.510;2023-12-20T08:28:46;8.00;1.00
1592;DHT22;789;51.612;7.510;2023-12-20T08:31:14;8.00;1.00
1592;DHT22;789;51.612;7.510;2023-12-20T08:33:43;8.00;1.00
1592;DHT22;789;51.612;7.510;2023-12-20T08:36:11;8.00;1.00
1592;DHT22;789;51.612;7.510;2023-12-20T08:38:38;8.00;1.00
1592;DHT22;789;51.612;7.510;2023-12-20T08:41:08;8.00;1.00
1592;DHT22;789;51.612;7.510;2023-12-20T08:43:37;8.10;1.00
1592;DHT22;789;51.612;7.510;2023-12-20T08:46:05;8.10;1.00
1592;DHT22;789;51.612;7.510;2023-12-20T08:48:32;8.00;1.00
1592;DHT22;789;51.612;7.510;2023-12-20T08:50:58;8.00;1.00
1592;DHT22;789;51.612;7.510;2023-12-20T08:53:26;8.00;1.00
1592;DHT22;789;51.612;7.510;2023-12-20T08:55:53;8.00;1.00
1592;DHT22;789;51.612;7.510;2023-12-20T08:58:19;8.10;1.00
1592;DHT22;789;51.612;7.510;2023-12-20T09:00:46;8.10;1.00
1592;DHT22;789;51.612;7.510;2023-12-20T09:03:13;8.10;1.00
1592;DHT22;789;51.612;7.510;2023-12-20T09:05:39;8.20;1.00
1592;DHT22;789;51.612;7.510;2023-12-20T09:08:06;8.20;1.00
1592;DHT22;789;51.612;7.510;2023-12-20T09:10:37;8.20;1.00
1592;DHT22;789;51.612;7.510;2023-12-20T09:13:04;8.20;1.00
1592;DHT22;789;51.612;7.510;2023-12-20T09:15:31;8.20;1.00
1592;DHT22;789;51.612;7.510;2023-12-20T09:17:59;8.10;1.00
1592;DHT22;789;51.612;7.510;2023-12-20T09:20:26;8.20;1.00
1592;DHT22;789;51.612;7.510;2023-12-20T09:22:53;8.20;1.00
1592;DHT22;789;51.612;7.510;2023-12-20T09:25:22;8.10;1.00
1592;DHT22;789;51.612;7.510;2023-12-20T09:27:50;8.10;1.00
1592;DHT22;789;51.612;7.510;2023-12-20T09:30:17;8.10;1.00
1592;DHT22;789;51.612;7.510;2023-12-20T09:32:47;8.10;1.00
1592;DHT22;789;51.612;7.510;2023-12-20T09:35:15;8.10;1.00
1592;DHT22;789;51.612;7.510;2023-12-20T09:37:42;8.20;1.00
1592;DHT22;789;51.612;7.510;2023-12-20T09:40:13;8.20;1.00
1592;DHT22;789;51.612;7.510;2023-12-20T09:42:45;8.20;1.00
1592;DHT22;789;51.612;7.510;2023-12-20T09:45:19;8.30;1.00
1592;DHT22;789;51.612;7.510;2023-12-20T09:47:46;8.30;1.00
1592;DHT22;789;51.612;7.510;2023-12-20T09:50:13;8.30;1.00
1592;DHT22;789;51.612;7.510;2023-12-20T09:52:42;8.40;1.00
1592;DHT22;789;51.612;7.510;2023-12-20T09:55:10;8.40;1.00
1592;DHT22;789;51.612;7.510;2023-12-20T09:57:37;8.50;1.00
1592;DHT22;789;51.612;7.510;2023-12-20T10:00:07;8.50;1.00
1592;DHT22;789;51.612;7.510;2023-12-20T10:02:38;8.60;1.00
1592;DHT22;789;51.612;7.510;2023-12-20T10:05:08;8.60;1.00
1592;DHT22;789;51.612;7.510;2023-12-20T10:07:37;8.70;1.00
1592;DHT22;789;51.612;7.510;2023-12-20T10:10:05;8.70;1.00
1592;DHT22;789;51.612;7.510;2023-12-20T10:12:34;8.70;1.00
1592;DHT22;789;51.612;7.510;2023-12-20T10:15:01;8.70;1.00
1592;DHT22;789;51.612;7.510;2023-12-20T10:17:37;8.70;1.00
1592;DHT22;789;51.612;7.510;2023-12-20T10:20:05;8.80;1.00
1592;DHT22;789;51.612;7.510;2023-12-20T10:22:35;8.80;1.00
1592;DHT22;789;51.612;7.510;2023-12-20T10:25:04;8.80;1.00
1592;DHT22;789;51.612;7.510;2023-12-20T10:27:30;8.70;1.00
1592;DHT22;789;51.612;7.510;2023-12-20T10:29:59;8.70;1.00
1592;DHT22;789;51.612;7.510;2023-12-20T10:32:30;8.70;1.00
1592;DHT22;789;51.612;7.510;2023-12-20T10:35:00;8.60;1.00
1592;DHT22;789;51.612;7.510;2023-12-20T10:37:28;8.70;1.00
1592;DHT22;789;51.612;7.510;2023-12-20T10:39:55;8.60;1.00
1592;DHT22;789;51.612;7.510;2023-12-20T10:42:25;8.60;1.00
1592;DHT22;789;51.612;7.510;2023-12-20T10:44:52;8.60;1.00
1592;DHT22;789;51.612;7.510;2023-12-20T10:47:30;8.60;1.00
1592;DHT22;789;51.612;7.510;2023-12-20T10:49:59;8.80;1.00
1592;DHT22;789;51.612;7.510;2023-12-20T10:52:30;8.60;1.00
1592;DHT22;789;51.612;7.510;2023-12-20T10:55:01;8.60;1.00
1592;DHT22;789;51.612;7.510;2023-12-20T10:57:28;8.60;1.00
1592;DHT22;789;51.612;7.510;2023-12-20T10:59:56;8.60;1.00
1592;DHT22;789;51.612;7.510;2023-12-20T11:02:30;8.60;1.00
1592;DHT22;789;51.612;7.510;2023-12-20T11:05:07;8.60;1.00
1592;DHT22;789;51.612;7.510;2023-12-20T11:07:40;8.60;1.00
1592;DHT22;789;51.612;7.510;2023-12-20T11:10:15;8.60;1.00
1592;DHT22;789;51.612;7.510;2023-12-20T11:12:47;8.70;1.00
1592;DHT22;789;51.612;7.510;2023-12-20T11:15:16;8.70;1.00
1592;DHT22;789;51.612;7.510;2023-12-20T11:17:45;8.70;1.00
1592;DHT22;789;51.612;7.510;2023-12-20T11:20:14;8.80;1.00
1592;DHT22;789;51.612;7.510;2023-12-20T11:22:52;8.80;1.00
1592;DHT22;789;51.612;7.510;2023-12-20T11:25:19;8.90;1.00
1592;DHT22;789;51.612;7.510;2023-12-20T11:28:07;9.00;1.00
1592;DHT22;789;51.612;7.510;2023-12-20T11:30:41;9.00;1.00
1592;DHT22;789;51.612;7.510;2023-12-20T11:33:08;9.10;1.00
1592;DHT22;789;51.612;7.510;2023-12-20T11:35:37;9.20;1.00
1592;DHT22;789;51.612;7.510;2023-12-20T11:38:06;9.30;1.00
1592;DHT22;789;51.612;7.510;2023-12-20T11:40:34;9.30;1.00
1592;DHT22;789;51.612;7.510;2023-12-20T11:43:02;9.20;1.00
1592;DHT22;789;51.612;7.510;2023-12-20T11:45:29;9.20;1.00
1592;DHT22;789;51.612;7.510;2023-12-20T11:47:56;9.20;1.00
1592;DHT22;789;51.612;7.510;2023-12-20T11:50:24;9.20;1.00
1592;DHT22;789;51.612;7.510;2023-12-20T11:52:54;9.20;1.00
1592;DHT22;789;51.612;7.510;2023-12-20T11:55:21;9.10;1.00
1592;DHT22;789;51.612;7.510;2023-12-20T11:57:48;9.00;1.00
1592;DHT22;789;51.612;7.510;2023-12-20T12:00:18;9.00;1.00
1592;DHT22;789;51.612;7.510;2023-12-20T12:02:56;8.90;1.00
1592;DHT22;789;51.612;7.510;2023-12-20T12:05:24;8.90;1.00
1592;DHT22;789;51.612;7.510;2023-12-20T12:07:54;8.80;1.00
1592;DHT22;789;51.612;7.510;2023-12-20T12:10:21;8.80;1.00
1592;DHT22;789;51.612;7.510;2023-12-20T12:12:48;8.70;1.00
1592;DHT22;789;51.612;7.510;2023-12-20T12:15:15;8.60;1.00
1592;DHT22;789;51.612;7.510;2023-12-20T12:17:42;8.60;1.00
1592;DHT22;789;51.612;7.510;2023-12-20T12:20:09;8.60;1.00
1592;DHT22;789;51.612;7.510;2023-12-20T12:22:36;8.60;1.00
1592;DHT22;789;51.612;7.510;2023-12-20T12:25:12;8.70;1.00
1592;DHT22;789;51.612;7.510;2023-12-20T12:27:40;8.70;1.00
1592;DHT22;789;51.612;7.510;2023-12-20T12:30:08;8.70;1.00
1592;DHT22;789;51.612;7.510;2023-12-20T12:32:39;8.80;1.00
1592;DHT22;789;51.612;7.510;2023-12-20T12:35:12;8.90;1.00
1592;DHT22;789;51.612;7.510;2023-12-20T12:37:41;8.90;1.00
1592;DHT22;789;51.612;7.510;2023-12-20T12:40:11;8.90;1.00
1592;DHT22;789;51.612;7.510;2023-12-20T12:42:38;8.90;1.00
1592;DHT22;789;51.612;7.510;2023-12-20T12:45:06;8.90;1.00
1592;DHT22;789;51.612;7.510;2023-12-20T12:47:34;8.90;1.00
1592;DHT22;789;51.612;7.510;2023-12-20T12:50:01;8.90;1.00
1592;DHT22;789;51.612;7.510;2023-12-20T12:52:27;8.90;1.00
1592;DHT22;789;51.612;7.510;2023-12-20T12:54:54;8.90;1.00
1592;DHT22;789;51.612;7.510;2023-12-20T12:57:27;9.00;1.00
1592;DHT22;789;51.612;7.510;2023-12-20T12:59:54;9.10;1.00
1592;DHT22;789;51.612;7.510;2023-12-20T13:02:24;9.10;1.00
1592;DHT22;789;51.612;7.510;2023-12-20T13:04:51;9.30;1.00
1592;DHT22;789;51.612;7.510;2023-12-20T13:07:20;9.30;1.00
1592;DHT22;789;51.612;7.510;2023-12-20T13:09:46;9.50;1.00
1592;DHT22;789;51.612;7.510;2023-12-20T13:12:13;9.60;1.00
1592;DHT22;789;51.612;7.510;2023-12-20T13:14:41;9.50;1.00
1592;DHT22;789;51.612;7.510;2023-12-20T13:17:08;9.50;1.00
1592;DHT22;789;51.612;7.510;2023-12-20T13:19:36;9.60;1.00
1592;DHT22;789;51.612;7.510;2023-12-20T13:22:06;9.60;1.00
1592;DHT22;789;51.612;7.510;2023-12-20T13:24:33;9.50;1.00
1592;DHT22;789;51.612;7.510;2023-12-20T13:27:03;9.40;1.00
1592;DHT22;789;51.612;7.510;2023-12-20T13:29:30;9.40;1.00
1592;DHT22;789;51.612;7.510;2023-12-20T13:31:58;9.30;1.00
1592;DHT22;789;51.612;7.510;2023-12-20T13:34:25;9.30;1.00
1592;DHT22;789;51.612;7.510;2023-12-20T13:36:51;9.10;1.00
1592;DHT22;789;51.612;7.510;2023-12-20T13:39:18;9.10;1.00
1592;DHT22;789;51.612;7.510;2023-12-20T13:41:45;9.00;1.00
1592;DHT22;789;51.612;7.510;2023-12-20T13:44:12;9.00;1.00
1592;DHT22;789;51.612;7.510;2023-12-20T13:46:40;8.90;1.00
1592;DHT22;789;51.612;7.510;2023-12-20T13:49:10;8.90;1.00
1592;DHT22;789;51.612;7.510;2023-12-20T13:51:37;8.90;1.00
1592;DHT22;789;51.612;7.510;2023-12-20T13:54:05;8.90;1.00
1592;DHT22;789;51.612;7.510;2023-12-20T13:56:31;8.90;1.00
1592;DHT22;789;51.612;7.510;2023-12-20T13:59:02;8.90;1.00
1592;DHT22;789;51.612;7.510;2023-12-20T14:01:29;8.80;1.00
1592;DHT22;789;51.612;7.510;2023-12-20T14:03:56;8.80;1.00
1592;DHT22;789;51.612;7.510;2023-12-20T14:06:24;8.70;1.00
1592;DHT22;789;51.612;7.510;2023-12-20T14:08:51;8.70;1.00
1592;DHT22;789;51.612;7.510;2023-12-20T14:11:17;8.70;1.00
1592;DHT22;789;51.612;7.510;2023-12-20T14:13:44;8.60;1.00
1592;DHT22;789;51.612;7.510;2023-12-20T14:16:11;8.60;1.00
1592;DHT22;789;51.612;7.510;2023-12-20T14:18:38;8.70;1.00
1592;DHT22;789;51.612;7.510;2023-12-20T14:21:06;8.70;1.00
1592;DHT22;789;51.612;7.510;2023-12-20T14:23:34;8.70;1.00
1592;DHT22;789;51.612;7.510;2023-12-20T14:26:01;8.70;1.00
1592;DHT22;789;51.612;7.510;2023-12-20T14:28:28;8.60;1.00
1592;DHT22;789;51.612;7.510;2023-12-20T14:30:55;8.60;1.00
1592;DHT22;789;51.612;7.510;2023-12-20T14:33:25;8.60;1.00
1592;DHT22;789;51.612;7.510;2023-12-20T14:35:52;8.60;1.00
1592;DHT22;789;51.612;7.510;2023-12-20T14:38:18;8.60;1.00
1592;DHT22;789;51.612;7.510;2023-12-20T14:40:46;8.70;1.00
1592;DHT22;789;51.612;7.510;2023-12-20T14:43:13;8.60;1.00
1592;DHT22;789;51.612;7.510;2023-12-20T14:45:41;8.60;1.00
1592;DHT22;789;51.612;7.510;2023-12-20T14:48:08;8.60;1.00
1592;DHT22;789;51.612;7.510;2023-12-20T14:50:35;8.50;1.00
1592;DHT22;789;51.612;7.510;2023-12-20T14:53:02;8.50;1.00
1592;DHT22;789;51.612;7.510;2023-12-20T14:55:31;8.60;1.00
1592;DHT22;789;51.612;7.510;2023-12-20T14:58:00;8.60;1.00
1592;DHT22;789;51.612;7.510;2023-12-20T15:00:27;8.60;1.00
1592;DHT22;789;51.612;7.510;2023-12-20T15:02:55;8.50;1.00
1592;DHT22;789;51.612;7.510;2023-12-20T15:05:22;8.50;1.00
1592;DHT22;789;51.612;7.510;2023-12-20T15:07:48;8.50;1.00
1592;DHT22;789;51.612;7.510;2023-12-20T15:10:15;8.50;1.00
1592;DHT22;789;51.612;7.510;2023-12-20T15:12:43;8.50;1.00
1592;DHT22;789;51.612;7.510;2023-12-20T15:15:11;8.50;1.00
1592;DHT22;789;51.612;7.510;2023-12-20T15:17:39;8.50;1.00
1592;DHT22;789;51.612;7.510;2023-12-20T15:20:06;8.50;1.00
1592;DHT22;789;51.612;7.510;2023-12-20T15:22:35;8.50;1.00
1592;DHT22;789;51.612;7.510;2023-12-20T15:25:04;8.50;1.00
1592;DHT22;789;51.612;7.510;2023-12-20T15:27:32;8.40;1.00
1592;DHT22;789;51.612;7.510;2023-12-20T15:30:00;8.40;1.00
1592;DHT22;789;51.612;7.510;2023-12-20T15:32:29;8.50;1.00
1592;DHT22;789;51.612;7.510;2023-12-20T15:34:56;8.40;1.00
1592;DHT22;789;51.612;7.510;2023-12-20T15:37:25;8.40;1.00
1592;DHT22;789;51.612;7.510;2023-12-20T15:39:52;8.40;1.00
1592;DHT22;789;51.612;7.510;2023-12-20T15:42:18;8.40;1.00
1592;DHT22;789;51.612;7.510;2023-12-20T15:44:45;8.40;1.00
1592;DHT22;789;51.612;7.510;2023-12-20T15:47:14;8.40;1.00
1592;DHT22;789;51.612;7.510;2023-12-20T15:49:42;8.40;1.00
1592;DHT22;789;51.612;7.510;2023-12-20T15:52:11;8.40;1.00
1592;DHT22;789;51.612;7.510;2023-12-20T15:54:38;8.40;1.00
1592;DHT22;789;51.612;7.510;2023-12-20T15:57:07;8.50;1.00
1592;DHT22;789;51.612;7.510;2023-12-20T15:59:34;8.50;1.00
1592;DHT22;789;51.612;7.510;2023-12-20T16:02:02;8.50;1.00
1592;DHT22;789;51.612;7.510;2023-12-20T16:04:29;8.50;1.00
1592;DHT22;789;51.612;7.510;2023-12-20T16:06:57;8.50;1.00
1592;DHT22;789;51.612;7.510;2023-12-20T16:09:24;8.50;1.00
1592;DHT22;789;51.612;7.510;2023-12-20T16:11:51;8.50;1.00
1592;DHT22;789;51.612;7.510;2023-12-20T16:14:17;8.50;1.00
1592;DHT22;789;51.612;7.510;2023-12-20T16:16:45;8.50;1.00
1592;DHT22;789;51.612;7.510;2023-12-20T16:19:12;8.60;1.00
1592;DHT22;789;51.612;7.510;2023-12-20T16:21:39;8.60;1.00
1592;DHT22;789;51.612;7.510;2023-12-20T16:24:07;8.60;1.00
1592;DHT22;789;51.612;7.510;2023-12-20T16:26:34;8.60;1.00
1592;DHT22;789;51.612;7.510;2023-12-20T16:29:01;8.60;1.00
1592;DHT22;789;51.612;7.510;2023-12-20T16:31:28;8.60;1.00
1592;DHT22;789;51.612;7.510;2023-12-20T16:34:03;8.70;1.00
1592;DHT22;789;51.612;7.510;2023-12-20T16:36:48;8.60;1.00
1592;DHT22;789;51.612;7.510;2023-12-20T16:39:18;8.60;1.00
1592;DHT22;789;51.612;7.510;2023-12-20T16:41:45;8.60;1.00
1592;DHT22;789;51.612;7.510;2023-12-20T16:44:12;8.60;1.00
1592;DHT22;789;51.612;7.510;2023-12-20T16:46:38;8.70;1.00
1592;DHT22;789;51.612;7.510;2023-12-20T16:49:06;8.70;1.00
1592;DHT22;789;51.612;7.510;2023-12-20T16:51:33;8.70;1.00
1592;DHT22;789;51.612;7.510;2023-12-20T16:53:59;8.70;1.00
1592;DHT22;789;51.612;7.510;2023-12-20T16:56:27;8.60;1.00